sensor_id;sensor_type;location;lat;lon;timestamp;P1;durP1;ratioP1;P2;durP2;ratioP2
34196;SDS011;36594;45.192;5.722;2022-07-22T00:01:43;2.42;;;2.30;;
34196;SDS011;36594;45.192;5.722;2022-07-22T00:04:31;2.30;;;2.20;;
34196;SDS011;36594;45.192;5.722;2022-07-22T00:07:20;2.20;;;2.10;;
34196;SDS011;36594;45.192;5.722;2022-07-22T00:10:09;2.27;;;2.10;;
34196;SDS011;36594;45.192;5.722;2022-07-22T00:12:58;2.20;;;2.10;;
34196;SDS011;36594;45.192;5.722;2022-07-22T00:15:46;2.77;;;2.08;;
34196;SDS011;36594;45.192;5.722;2022-07-22T00:18:35;2.53;;;2.30;;
34196;SDS011;36594;45.192;5.722;2022-07-22T00:21:23;2.20;;;2.10;;
34196;SDS011;36594;45.192;5.722;2022-07-22T00:24:12;2.83;;;2.10;;
34196;SDS011;36594;45.192;5.722;2022-07-22T00:27:00;2.50;;;2.10;;
34196;SDS011;36594;45.192;5.722;2022-07-22T00:29:49;2.20;;;2.10;;
34196;SDS011;36594;45.192;5.722;2022-07-22T00:32:38;2.40;;;2.20;;
34196;SDS011;36594;45.192;5.722;2022-07-22T00:35:27;2.10;;;2.00;;
34196;SDS011;36594;45.192;5.722;2022-07-22T00:38:16;2.10;;;2.00;;
34196;SDS011;36594;45.192;5.722;2022-07-22T00:41:05;2.87;;;2.13;;
34196;SDS011;36594;45.192;5.722;2022-07-22T00:43:55;2.50;;;2.30;;
34196;SDS011;36594;45.192;5.722;2022-07-22T00:46:47;3.05;;;2.20;;
34196;SDS011;36594;45.192;5.722;2022-07-22T00:49:36;3.50;;;2.12;;
34196;SDS011;36594;45.192;5.722;2022-07-22T00:52:25;2.17;;;2.08;;
34196;SDS011;36594;45.192;5.722;2022-07-22T00:55:14;2.60;;;2.30;;
34196;SDS011;36594;45.192;5.722;2022-07-22T00:58:02;2.05;;;1.95;;
34196;SDS011;36594;45.192;5.722;2022-07-22T01:00:51;2.02;;;1.92;;
34196;SDS011;36594;45.192;5.722;2022-07-22T01:03:40;2.20;;;2.00;;
34196;SDS011;36594;45.192;5.722;2022-07-22T01:06:29;2.13;;;2.03;;
34196;SDS011;36594;45.192;5.722;2022-07-22T01:09:17;2.10;;;1.90;;
34196;SDS011;36594;45.192;5.722;2022-07-22T01:12:06;2.20;;;2.00;;
34196;SDS011;36594;45.192;5.722;2022-07-22T01:14:55;2.00;;;1.90;;
34196;SDS011;36594;45.192;5.722;2022-07-22T01:17:43;2.03;;;1.93;;
34196;SDS011;36594;45.192;5.722;2022-07-22T01:20:32;2.02;;;1.90;;
34196;SDS011;36594;45.192;5.722;2022-07-22T01:23:23;2.50;;;2.37;;
34196;SDS011;36594;45.192;5.722;2022-07-22T01:26:11;2.20;;;2.10;;
34196;SDS011;36594;45.192;5.722;2022-07-22T01:29:00;2.15;;;2.00;;
34196;SDS011;36594;45.192;5.722;2022-07-22T01:31:49;2.12;;;2.02;;
34196;SDS011;36594;45.192;5.722;2022-07-22T01:34:38;2.72;;;1.90;;
34196;SDS011;36594;45.192;5.722;2022-07-22T01:37:26;2.15;;;2.05;;
34196;SDS011;36594;45.192;5.722;2022-07-22T01:40:15;2.15;;;2.05;;
34196;SDS011;36594;45.192;5.722;2022-07-22T01:43:04;2.80;;;2.08;;
34196;SDS011;36594;45.192;5.722;2022-07-22T01:45:53;2.20;;;2.10;;
34196;SDS011;36594;45.192;5.722;2022-07-22T01:48:43;2.08;;;1.98;;
34196;SDS011;36594;45.192;5.722;2022-07-22T01:51:32;1.90;;;1.80;;
34196;SDS011;36594;45.192;5.722;2022-07-22T01:54:20;2.05;;;1.95;;
34196;SDS011;36594;45.192;5.722;2022-07-22T01:57:08;2.02;;;1.92;;
34196;SDS011;36594;45.192;5.722;2022-07-22T01:59:58;2.10;;;1.90;;
34196;SDS011;36594;45.192;5.722;2022-07-22T02:02:47;1.93;;;1.73;;
34196;SDS011;36594;45.192;5.722;2022-07-22T02:05:36;1.80;;;1.70;;
34196;SDS011;36594;45.192;5.722;2022-07-22T02:08:27;2.00;;;1.90;;
34196;SDS011;36594;45.192;5.722;2022-07-22T02:11:17;2.10;;;2.00;;
34196;SDS011;36594;45.192;5.722;2022-07-22T02:14:13;1.87;;;1.87;;
34196;SDS011;36594;45.192;5.722;2022-07-22T02:17:02;1.90;;;1.80;;
34196;SDS011;36594;45.192;5.722;2022-07-22T02:19:50;2.00;;;1.90;;
34196;SDS011;36594;45.192;5.722;2022-07-22T02:22:39;1.90;;;1.80;;
34196;SDS011;36594;45.192;5.722;2022-07-22T02:25:27;2.00;;;1.90;;
34196;SDS011;36594;45.192;5.722;2022-07-22T02:28:17;2.15;;;2.00;;
34196;SDS011;36594;45.192;5.722;2022-07-22T02:31:06;2.37;;;2.17;;
34196;SDS011;36594;45.192;5.722;2022-07-22T02:33:54;2.00;;;1.90;;
34196;SDS011;36594;45.192;5.722;2022-07-22T02:36:43;2.40;;;2.07;;
34196;SDS011;36594;45.192;5.722;2022-07-22T02:39:32;2.02;;;1.92;;
34196;SDS011;36594;45.192;5.722;2022-07-22T02:42:21;1.85;;;1.75;;
34196;SDS011;36594;45.192;5.722;2022-07-22T02:45:10;2.58;;;2.00;;
34196;SDS011;36594;45.192;5.722;2022-07-22T02:47:59;2.10;;;2.00;;
34196;SDS011;36594;45.192;5.722;2022-07-22T02:50:49;2.35;;;1.80;;
34196;SDS011;36594;45.192;5.722;2022-07-22T02:53:39;2.10;;;2.00;;
34196;SDS011;36594;45.192;5.722;2022-07-22T02:56:28;2.23;;;2.03;;
34196;SDS011;36594;45.192;5.722;2022-07-22T02:59:17;2.00;;;1.90;;
34196;SDS011;36594;45.192;5.722;2022-07-22T03:02:05;1.85;;;1.75;;
34196;SDS011;36594;45.192;5.722;2022-07-22T03:04:54;2.10;;;2.00;;
34196;SDS011;36594;45.192;5.722;2022-07-22T03:07:42;2.00;;;1.90;;
34196;SDS011;36594;45.192;5.722;2022-07-22T03:10:31;2.10;;;2.00;;
34196;SDS011;36594;45.192;5.722;2022-07-22T03:13:20;2.80;;;1.80;;
34196;SDS011;36594;45.192;5.722;2022-07-22T03:16:09;2.22;;;2.08;;
34196;SDS011;36594;45.192;5.722;2022-07-22T03:18:58;1.90;;;1.80;;
34196;SDS011;36594;45.192;5.722;2022-07-22T03:21:46;2.30;;;2.10;;
34196;SDS011;36594;45.192;5.722;2022-07-22T03:24:34;2.10;;;2.00;;
34196;SDS011;36594;45.192;5.722;2022-07-22T03:27:23;1.90;;;1.80;;
34196;SDS011;36594;45.192;5.722;2022-07-22T03:30:12;1.90;;;1.80;;
34196;SDS011;36594;45.192;5.722;2022-07-22T03:33:01;1.90;;;1.80;;
34196;SDS011;36594;45.192;5.722;2022-07-22T03:35:51;2.10;;;2.00;;
34196;SDS011;36594;45.192;5.722;2022-07-22T03:38:39;2.20;;;2.10;;
34196;SDS011;36594;45.192;5.722;2022-07-22T03:41:28;2.20;;;2.10;;
34196;SDS011;36594;45.192;5.722;2022-07-22T03:44:18;2.00;;;1.90;;
34196;SDS011;36594;45.192;5.722;2022-07-22T03:47:06;2.12;;;2.02;;
34196;SDS011;36594;45.192;5.722;2022-07-22T03:49:55;1.97;;;1.87;;
34196;SDS011;36594;45.192;5.722;2022-07-22T03:52:46;2.00;;;1.90;;
34196;SDS011;36594;45.192;5.722;2022-07-22T03:55:35;2.33;;;2.00;;
34196;SDS011;36594;45.192;5.722;2022-07-22T03:58:25;2.42;;;1.90;;
34196;SDS011;36594;45.192;5.722;2022-07-22T04:01:14;2.15;;;2.05;;
34196;SDS011;36594;45.192;5.722;2022-07-22T04:04:04;1.82;;;1.72;;
34196;SDS011;36594;45.192;5.722;2022-07-22T04:06:53;1.83;;;1.73;;
34196;SDS011;36594;45.192;5.722;2022-07-22T04:09:43;1.90;;;1.80;;
34196;SDS011;36594;45.192;5.722;2022-07-22T04:12:34;1.87;;;1.77;;
34196;SDS011;36594;45.192;5.722;2022-07-22T04:15:28;1.92;;;1.82;;
34196;SDS011;36594;45.192;5.722;2022-07-22T04:18:17;1.90;;;1.80;;
34196;SDS011;36594;45.192;5.722;2022-07-22T04:21:06;1.80;;;1.70;;
34196;SDS011;36594;45.192;5.722;2022-07-22T04:24:15;1.90;;;1.80;;
34196;SDS011;36594;45.192;5.722;2022-07-22T04:27:03;2.20;;;2.10;;
34196;SDS011;36594;45.192;5.722;2022-07-22T04:29:53;1.85;;;1.75;;
34196;SDS011;36594;45.192;5.722;2022-07-22T04:32:41;1.80;;;1.70;;
34196;SDS011;36594;45.192;5.722;2022-07-22T04:35:30;1.80;;;1.70;;
34196;SDS011;36594;45.192;5.722;2022-07-22T04:38:23;2.15;;;2.00;;
34196;SDS011;36594;45.192;5.722;2022-07-22T04:41:19;2.08;;;1.87;;
34196;SDS011;36594;45.192;5.722;2022-07-22T04:44:07;1.87;;;1.77;;
34196;SDS011;36594;45.192;5.722;2022-07-22T04:46:56;1.90;;;1.80;;
34196;SDS011;36594;45.192;5.722;2022-07-22T04:49:45;2.05;;;1.95;;
34196;SDS011;36594;45.192;5.722;2022-07-22T04:52:33;1.92;;;1.82;;
34196;SDS011;36594;45.192;5.722;2022-07-22T04:55:22;2.25;;;1.95;;
34196;SDS011;36594;45.192;5.722;2022-07-22T04:58:11;1.98;;;1.87;;
34196;SDS011;36594;45.192;5.722;2022-07-22T05:00:59;2.10;;;2.00;;
34196;SDS011;36594;45.192;5.722;2022-07-22T05:03:48;2.47;;;2.12;;
34196;SDS011;36594;45.192;5.722;2022-07-22T05:06:38;2.00;;;1.90;;
34196;SDS011;36594;45.192;5.722;2022-07-22T05:09:27;1.90;;;1.80;;
34196;SDS011;36594;45.192;5.722;2022-07-22T05:12:15;2.05;;;1.95;;
34196;SDS011;36594;45.192;5.722;2022-07-22T05:15:03;2.10;;;2.00;;
34196;SDS011;36594;45.192;5.722;2022-07-22T05:17:53;2.60;;;2.00;;
34196;SDS011;36594;45.192;5.722;2022-07-22T05:20:43;2.20;;;2.10;;
34196;SDS011;36594;45.192;5.722;2022-07-22T05:23:31;1.90;;;1.80;;
34196;SDS011;36594;45.192;5.722;2022-07-22T05:26:20;1.80;;;1.70;;
34196;SDS011;36594;45.192;5.722;2022-07-22T05:29:09;1.95;;;1.85;;
34196;SDS011;36594;45.192;5.722;2022-07-22T05:31:57;1.92;;;1.82;;
34196;SDS011;36594;45.192;5.722;2022-07-22T05:34:46;2.12;;;2.02;;
34196;SDS011;36594;45.192;5.722;2022-07-22T05:37:35;1.90;;;1.80;;
34196;SDS011;36594;45.192;5.722;2022-07-22T05:40:23;2.02;;;1.92;;
34196;SDS011;36594;45.192;5.722;2022-07-22T05:43:11;2.00;;;1.90;;
34196;SDS011;36594;45.192;5.722;2022-07-22T05:46:00;1.90;;;1.80;;
34196;SDS011;36594;45.192;5.722;2022-07-22T05:48:48;2.10;;;2.00;;
34196;SDS011;36594;45.192;5.722;2022-07-22T05:51:38;2.20;;;2.00;;
34196;SDS011;36594;45.192;5.722;2022-07-22T05:54:27;2.10;;;2.00;;
34196;SDS011;36594;45.192;5.722;2022-07-22T05:57:15;2.60;;;2.22;;
34196;SDS011;36594;45.192;5.722;2022-07-22T06:00:05;2.60;;;2.40;;
34196;SDS011;36594;45.192;5.722;2022-07-22T06:02:56;2.30;;;2.20;;
34196;SDS011;36594;45.192;5.722;2022-07-22T06:05:45;2.90;;;2.50;;
34196;SDS011;36594;45.192;5.722;2022-07-22T06:08:35;2.42;;;2.22;;
34196;SDS011;36594;45.192;5.722;2022-07-22T06:11:24;2.70;;;2.55;;
34196;SDS011;36594;45.192;5.722;2022-07-22T06:14:12;2.62;;;2.42;;
34196;SDS011;36594;45.192;5.722;2022-07-22T06:17:01;2.83;;;2.62;;
34196;SDS011;36594;45.192;5.722;2022-07-22T06:19:52;2.83;;;2.62;;
34196;SDS011;36594;45.192;5.722;2022-07-22T06:22:41;2.72;;;2.52;;
34196;SDS011;36594;45.192;5.722;2022-07-22T06:25:29;3.08;;;2.67;;
34196;SDS011;36594;45.192;5.722;2022-07-22T06:28:19;3.08;;;2.80;;
34196;SDS011;36594;45.192;5.722;2022-07-22T06:31:07;2.53;;;2.33;;
34196;SDS011;36594;45.192;5.722;2022-07-22T06:33:55;2.67;;;2.47;;
34196;SDS011;36594;45.192;5.722;2022-07-22T06:36:45;2.62;;;2.42;;
34196;SDS011;36594;45.192;5.722;2022-07-22T06:39:34;2.50;;;2.30;;
34196;SDS011;36594;45.192;5.722;2022-07-22T06:42:30;2.58;;;2.40;;
34196;SDS011;36594;45.192;5.722;2022-07-22T06:45:36;3.63;;;2.50;;
34196;SDS011;36594;45.192;5.722;2022-07-22T06:48:26;2.72;;;2.50;;
34196;SDS011;36594;45.192;5.722;2022-07-22T06:51:15;4.65;;;2.80;;
34196;SDS011;36594;45.192;5.722;2022-07-22T06:54:04;2.70;;;2.50;;
34196;SDS011;36594;45.192;5.722;2022-07-22T06:56:52;2.80;;;2.60;;
34196;SDS011;36594;45.192;5.722;2022-07-22T06:59:42;2.60;;;2.40;;
34196;SDS011;36594;45.192;5.722;2022-07-22T07:02:31;2.60;;;2.40;;
34196;SDS011;36594;45.192;5.722;2022-07-22T07:05:19;2.77;;;2.58;;
34196;SDS011;36594;45.192;5.722;2022-07-22T07:08:09;2.72;;;2.55;;
34196;SDS011;36594;45.192;5.722;2022-07-22T07:10:58;3.25;;;2.58;;
34196;SDS011;36594;45.192;5.722;2022-07-22T07:13:46;2.50;;;2.40;;
34196;SDS011;36594;45.192;5.722;2022-07-22T07:16:35;2.95;;;2.75;;
34196;SDS011;36594;45.192;5.722;2022-07-22T07:19:23;2.75;;;2.50;;
34196;SDS011;36594;45.192;5.722;2022-07-22T07:22:12;2.90;;;2.60;;
34196;SDS011;36594;45.192;5.722;2022-07-22T07:25:02;3.17;;;2.80;;
34196;SDS011;36594;45.192;5.722;2022-07-22T07:27:55;2.80;;;2.60;;
34196;SDS011;36594;45.192;5.722;2022-07-22T07:30:45;3.22;;;2.58;;
34196;SDS011;36594;45.192;5.722;2022-07-22T07:33:34;2.80;;;2.60;;
34196;SDS011;36594;45.192;5.722;2022-07-22T07:36:22;2.93;;;2.73;;
34196;SDS011;36594;45.192;5.722;2022-07-22T07:39:11;3.27;;;2.60;;
34196;SDS011;36594;45.192;5.722;2022-07-22T07:42:00;3.13;;;2.47;;
34196;SDS011;36594;45.192;5.722;2022-07-22T07:44:50;2.92;;;2.60;;
34196;SDS011;36594;45.192;5.722;2022-07-22T07:47:38;2.95;;;2.77;;
34196;SDS011;36594;45.192;5.722;2022-07-22T07:50:27;3.00;;;2.80;;
34196;SDS011;36594;45.192;5.722;2022-07-22T07:53:16;3.30;;;3.00;;
34196;SDS011;36594;45.192;5.722;2022-07-22T07:56:05;2.77;;;2.60;;
34196;SDS011;36594;45.192;5.722;2022-07-22T07:58:54;2.72;;;2.52;;
34196;SDS011;36594;45.192;5.722;2022-07-22T08:01:43;3.12;;;2.70;;
34196;SDS011;36594;45.192;5.722;2022-07-22T08:04:32;3.07;;;2.83;;
34196;SDS011;36594;45.192;5.722;2022-07-22T08:07:23;2.67;;;2.58;;
34196;SDS011;36594;45.192;5.722;2022-07-22T08:10:12;2.90;;;2.70;;
34196;SDS011;36594;45.192;5.722;2022-07-22T08:13:17;3.05;;;2.70;;
34196;SDS011;36594;45.192;5.722;2022-07-22T08:16:19;2.70;;;2.50;;
34196;SDS011;36594;45.192;5.722;2022-07-22T08:19:07;2.87;;;2.67;;
34196;SDS011;36594;45.192;5.722;2022-07-22T08:21:56;2.80;;;2.60;;
34196;SDS011;36594;45.192;5.722;2022-07-22T08:24:47;2.52;;;2.27;;
34196;SDS011;36594;45.192;5.722;2022-07-22T08:27:37;2.85;;;2.65;;
34196;SDS011;36594;45.192;5.722;2022-07-22T08:30:26;3.20;;;2.90;;
34196;SDS011;36594;45.192;5.722;2022-07-22T08:33:15;3.27;;;2.45;;
34196;SDS011;36594;45.192;5.722;2022-07-22T08:36:05;2.70;;;2.50;;
34196;SDS011;36594;45.192;5.722;2022-07-22T08:38:54;2.67;;;2.47;;
34196;SDS011;36594;45.192;5.722;2022-07-22T08:41:45;2.77;;;2.58;;
34196;SDS011;36594;45.192;5.722;2022-07-22T08:44:34;2.72;;;2.40;;
34196;SDS011;36594;45.192;5.722;2022-07-22T08:47:23;3.50;;;2.63;;
34196;SDS011;36594;45.192;5.722;2022-07-22T08:50:26;3.50;;;2.60;;
34196;SDS011;36594;45.192;5.722;2022-07-22T08:53:24;3.10;;;2.53;;
34196;SDS011;36594;45.192;5.722;2022-07-22T08:56:14;2.80;;;2.63;;
34196;SDS011;36594;45.192;5.722;2022-07-22T08:59:03;3.35;;;2.50;;
34196;SDS011;36594;45.192;5.722;2022-07-22T09:02:06;2.75;;;2.55;;
34196;SDS011;36594;45.192;5.722;2022-07-22T09:05:00;2.33;;;2.22;;
34196;SDS011;36594;45.192;5.722;2022-07-22T09:07:49;2.35;;;2.20;;
34196;SDS011;36594;45.192;5.722;2022-07-22T09:10:44;2.72;;;2.50;;
34196;SDS011;36594;45.192;5.722;2022-07-22T09:13:50;2.60;;;2.40;;
34196;SDS011;36594;45.192;5.722;2022-07-22T09:16:45;2.58;;;2.37;;
34196;SDS011;36594;45.192;5.722;2022-07-22T09:19:37;2.30;;;2.20;;
34196;SDS011;36594;45.192;5.722;2022-07-22T09:22:45;3.70;;;2.50;;
34196;SDS011;36594;45.192;5.722;2022-07-22T09:25:37;2.55;;;2.45;;
34196;SDS011;36594;45.192;5.722;2022-07-22T09:28:53;3.07;;;2.50;;
34196;SDS011;36594;45.192;5.722;2022-07-22T09:31:51;2.80;;;2.27;;
34196;SDS011;36594;45.192;5.722;2022-07-22T09:34:50;2.42;;;2.30;;
34196;SDS011;36594;45.192;5.722;2022-07-22T09:37:52;2.60;;;2.40;;
34196;SDS011;36594;45.192;5.722;2022-07-22T09:40:44;2.47;;;2.30;;
34196;SDS011;36594;45.192;5.722;2022-07-22T09:43:37;2.52;;;2.33;;
34196;SDS011;36594;45.192;5.722;2022-07-22T09:46:35;2.65;;;2.42;;
34196;SDS011;36594;45.192;5.722;2022-07-22T09:49:42;2.83;;;2.40;;
34196;SDS011;36594;45.192;5.722;2022-07-22T09:52:45;3.63;;;3.33;;
34196;SDS011;36594;45.192;5.722;2022-07-22T09:55:37;4.85;;;2.90;;
34196;SDS011;36594;45.192;5.722;2022-07-22T09:58:27;3.47;;;3.17;;
34196;SDS011;36594;45.192;5.722;2022-07-22T10:01:16;4.28;;;3.98;;
34196;SDS011;36594;45.192;5.722;2022-07-22T10:04:06;3.60;;;3.20;;
34196;SDS011;36594;45.192;5.722;2022-07-22T10:06:59;5.15;;;3.27;;
34196;SDS011;36594;45.192;5.722;2022-07-22T10:09:50;4.53;;;3.92;;
34196;SDS011;36594;45.192;5.722;2022-07-22T10:12:42;3.25;;;3.05;;
34196;SDS011;36594;45.192;5.722;2022-07-22T10:15:33;3.80;;;2.77;;
34196;SDS011;36594;45.192;5.722;2022-07-22T10:18:24;3.75;;;2.87;;
34196;SDS011;36594;45.192;5.722;2022-07-22T10:21:16;4.50;;;2.72;;
34196;SDS011;36594;45.192;5.722;2022-07-22T10:24:15;3.10;;;2.90;;
34196;SDS011;36594;45.192;5.722;2022-07-22T10:27:07;3.10;;;2.80;;
34196;SDS011;36594;45.192;5.722;2022-07-22T10:29:56;3.63;;;2.97;;
34196;SDS011;36594;45.192;5.722;2022-07-22T10:35:58;3.00;;;2.80;;
34196;SDS011;36594;45.192;5.722;2022-07-22T10:39:10;3.30;;;3.00;;
34196;SDS011;36594;45.192;5.722;2022-07-22T10:41:56;3.08;;;2.70;;
34196;SDS011;36594;45.192;5.722;2022-07-22T10:44:48;3.17;;;2.72;;
34196;SDS011;36594;45.192;5.722;2022-07-22T10:50:43;3.20;;;2.90;;
34196;SDS011;36594;45.192;5.722;2022-07-22T10:56:34;3.22;;;2.80;;
34196;SDS011;36594;45.192;5.722;2022-07-22T10:59:25;3.35;;;3.10;;
34196;SDS011;36594;45.192;5.722;2022-07-22T11:02:13;2.77;;;2.58;;
34196;SDS011;36594;45.192;5.722;2022-07-22T11:05:03;3.10;;;2.60;;
34196;SDS011;36594;45.192;5.722;2022-07-22T11:07:53;2.72;;;2.52;;
34196;SDS011;36594;45.192;5.722;2022-07-22T11:10:48;2.92;;;2.72;;
34196;SDS011;36594;45.192;5.722;2022-07-22T11:13:37;3.02;;;2.83;;
34196;SDS011;36594;45.192;5.722;2022-07-22T11:16:28;3.20;;;2.90;;
34196;SDS011;36594;45.192;5.722;2022-07-22T11:19:26;2.90;;;2.70;;
34196;SDS011;36594;45.192;5.722;2022-07-22T11:22:11;3.33;;;3.00;;
34196;SDS011;36594;45.192;5.722;2022-07-22T11:25:09;3.17;;;2.80;;
34196;SDS011;36594;45.192;5.722;2022-07-22T11:27:59;3.30;;;3.00;;
34196;SDS011;36594;45.192;5.722;2022-07-22T11:31:04;3.80;;;3.02;;
34196;SDS011;36594;45.192;5.722;2022-07-22T11:33:39;3.67;;;2.90;;
34196;SDS011;36594;45.192;5.722;2022-07-22T11:36:28;3.53;;;3.23;;
34196;SDS011;36594;45.192;5.722;2022-07-22T11:39:20;3.33;;;3.02;;
34196;SDS011;36594;45.192;5.722;2022-07-22T11:42:11;3.22;;;2.95;;
34196;SDS011;36594;45.192;5.722;2022-07-22T11:45:00;4.12;;;3.05;;
34196;SDS011;36594;45.192;5.722;2022-07-22T11:47:49;3.10;;;2.90;;
34196;SDS011;36594;45.192;5.722;2022-07-22T11:50:38;3.20;;;2.90;;
34196;SDS011;36594;45.192;5.722;2022-07-22T11:53:28;3.20;;;3.00;;
34196;SDS011;36594;45.192;5.722;2022-07-22T11:56:16;3.22;;;2.70;;
34196;SDS011;36594;45.192;5.722;2022-07-22T11:59:05;3.30;;;3.00;;
34196;SDS011;36594;45.192;5.722;2022-07-22T12:01:55;2.85;;;2.65;;
34196;SDS011;36594;45.192;5.722;2022-07-22T12:04:45;4.30;;;3.20;;
34196;SDS011;36594;45.192;5.722;2022-07-22T12:07:34;3.65;;;2.98;;
34196;SDS011;36594;45.192;5.722;2022-07-22T12:10:24;3.08;;;2.87;;
34196;SDS011;36594;45.192;5.722;2022-07-22T12:13:12;4.70;;;3.00;;
34196;SDS011;36594;45.192;5.722;2022-07-22T12:16:16;2.87;;;2.60;;
34196;SDS011;36594;45.192;5.722;2022-07-22T12:19:00;2.90;;;2.70;;
34196;SDS011;36594;45.192;5.722;2022-07-22T12:24:57;2.80;;;2.60;;
34196;SDS011;36594;45.192;5.722;2022-07-22T12:28:00;2.93;;;2.53;;
34196;SDS011;36594;45.192;5.722;2022-07-22T12:30:49;2.60;;;2.47;;
34196;SDS011;36594;45.192;5.722;2022-07-22T12:33:46;2.83;;;2.70;;
34196;SDS011;36594;45.192;5.722;2022-07-22T12:36:32;2.77;;;2.58;;
34196;SDS011;36594;45.192;5.722;2022-07-22T12:39:23;2.62;;;2.42;;
34196;SDS011;36594;45.192;5.722;2022-07-22T12:42:16;2.77;;;2.40;;
34196;SDS011;36594;45.192;5.722;2022-07-22T12:45:06;2.70;;;2.50;;
34196;SDS011;36594;45.192;5.722;2022-07-22T12:53:44;2.80;;;2.50;;
34196;SDS011;36594;45.192;5.722;2022-07-22T12:56:33;3.10;;;2.40;;
34196;SDS011;36594;45.192;5.722;2022-07-22T12:59:27;2.50;;;2.33;;
34196;SDS011;36594;45.192;5.722;2022-07-22T13:02:11;2.40;;;2.30;;
34196;SDS011;36594;45.192;5.722;2022-07-22T13:05:00;2.67;;;2.50;;
34196;SDS011;36594;45.192;5.722;2022-07-22T13:07:48;3.02;;;2.60;;
34196;SDS011;36594;45.192;5.722;2022-07-22T13:10:39;2.72;;;2.52;;
34196;SDS011;36594;45.192;5.722;2022-07-22T13:13:28;2.95;;;2.55;;
34196;SDS011;36594;45.192;5.722;2022-07-22T13:16:17;2.50;;;2.40;;
34196;SDS011;36594;45.192;5.722;2022-07-22T13:19:06;2.50;;;2.40;;
34196;SDS011;36594;45.192;5.722;2022-07-22T13:21:55;2.67;;;2.47;;
34196;SDS011;36594;45.192;5.722;2022-07-22T13:24:43;2.73;;;2.43;;
34196;SDS011;36594;45.192;5.722;2022-07-22T13:27:32;2.60;;;2.37;;
34196;SDS011;36594;45.192;5.722;2022-07-22T13:30:21;4.70;;;2.50;;
34196;SDS011;36594;45.192;5.722;2022-07-22T13:33:10;2.50;;;2.40;;
34196;SDS011;36594;45.192;5.722;2022-07-22T13:35:59;2.50;;;2.40;;
34196;SDS011;36594;45.192;5.722;2022-07-22T13:38:49;2.70;;;2.40;;
34196;SDS011;36594;45.192;5.722;2022-07-22T13:41:38;2.40;;;2.27;;
34196;SDS011;36594;45.192;5.722;2022-07-22T13:44:27;2.33;;;2.22;;
34196;SDS011;36594;45.192;5.722;2022-07-22T13:47:17;2.75;;;2.45;;
34196;SDS011;36594;45.192;5.722;2022-07-22T13:50:05;2.60;;;2.40;;
34196;SDS011;36594;45.192;5.722;2022-07-22T13:52:54;4.40;;;2.60;;
34196;SDS011;36594;45.192;5.722;2022-07-22T13:55:43;2.40;;;2.30;;
34196;SDS011;36594;45.192;5.722;2022-07-22T13:58:31;2.70;;;2.50;;
34196;SDS011;36594;45.192;5.722;2022-07-22T14:01:20;2.40;;;2.20;;
34196;SDS011;36594;45.192;5.722;2022-07-22T14:04:10;2.60;;;2.40;;
34196;SDS011;36594;45.192;5.722;2022-07-22T14:06:59;2.40;;;2.30;;
34196;SDS011;36594;45.192;5.722;2022-07-22T14:09:47;2.35;;;2.25;;
34196;SDS011;36594;45.192;5.722;2022-07-22T14:12:35;2.55;;;2.35;;
34196;SDS011;36594;45.192;5.722;2022-07-22T14:15:24;2.40;;;2.20;;
34196;SDS011;36594;45.192;5.722;2022-07-22T14:18:12;2.60;;;2.17;;
34196;SDS011;36594;45.192;5.722;2022-07-22T14:21:01;2.55;;;2.33;;
34196;SDS011;36594;45.192;5.722;2022-07-22T14:23:49;2.42;;;2.33;;
34196;SDS011;36594;45.192;5.722;2022-07-22T14:26:38;2.62;;;2.42;;
34196;SDS011;36594;45.192;5.722;2022-07-22T14:29:29;2.40;;;2.30;;
34196;SDS011;36594;45.192;5.722;2022-07-22T14:32:17;2.47;;;2.27;;
34196;SDS011;36594;45.192;5.722;2022-07-22T14:35:06;3.40;;;2.20;;
34196;SDS011;36594;45.192;5.722;2022-07-22T14:37:55;2.47;;;2.27;;
34196;SDS011;36594;45.192;5.722;2022-07-22T14:40:43;2.23;;;2.13;;
34196;SDS011;36594;45.192;5.722;2022-07-22T14:43:32;2.20;;;2.10;;
34196;SDS011;36594;45.192;5.722;2022-07-22T14:46:21;3.20;;;2.30;;
34196;SDS011;36594;45.192;5.722;2022-07-22T14:49:10;2.15;;;2.05;;
34196;SDS011;36594;45.192;5.722;2022-07-22T14:51:58;2.20;;;2.10;;
34196;SDS011;36594;45.192;5.722;2022-07-22T14:54:47;2.52;;;2.20;;
34196;SDS011;36594;45.192;5.722;2022-07-22T14:57:35;2.33;;;2.22;;
34196;SDS011;36594;45.192;5.722;2022-07-22T15:00:24;2.10;;;1.90;;
34196;SDS011;36594;45.192;5.722;2022-07-22T15:03:12;2.30;;;2.10;;
34196;SDS011;36594;45.192;5.722;2022-07-22T15:06:01;2.40;;;2.20;;
34196;SDS011;36594;45.192;5.722;2022-07-22T15:08:50;2.98;;;2.10;;
34196;SDS011;36594;45.192;5.722;2022-07-22T15:11:38;2.10;;;2.00;;
34196;SDS011;36594;45.192;5.722;2022-07-22T15:14:27;2.33;;;2.22;;
34196;SDS011;36594;45.192;5.722;2022-07-22T15:17:15;2.90;;;2.30;;
34196;SDS011;36594;45.192;5.722;2022-07-22T15:20:05;2.12;;;2.02;;
34196;SDS011;36594;45.192;5.722;2022-07-22T15:22:54;2.10;;;2.00;;
34196;SDS011;36594;45.192;5.722;2022-07-22T15:25:43;2.87;;;2.08;;
34196;SDS011;36594;45.192;5.722;2022-07-22T15:28:31;2.23;;;2.13;;
34196;SDS011;36594;45.192;5.722;2022-07-22T15:31:20;2.35;;;2.15;;
34196;SDS011;36594;45.192;5.722;2022-07-22T15:34:08;2.40;;;2.20;;
34196;SDS011;36594;45.192;5.722;2022-07-22T15:36:57;3.10;;;2.08;;
34196;SDS011;36594;45.192;5.722;2022-07-22T15:39:45;2.10;;;2.00;;
34196;SDS011;36594;45.192;5.722;2022-07-22T15:42:34;2.20;;;2.10;;
34196;SDS011;36594;45.192;5.722;2022-07-22T15:45:22;5.78;;;2.40;;
34196;SDS011;36594;45.192;5.722;2022-07-22T15:48:10;2.40;;;2.20;;
34196;SDS011;36594;45.192;5.722;2022-07-22T15:50:59;2.40;;;1.95;;
34196;SDS011;36594;45.192;5.722;2022-07-22T15:53:48;2.10;;;2.00;;
34196;SDS011;36594;45.192;5.722;2022-07-22T15:56:37;2.30;;;2.10;;
34196;SDS011;36594;45.192;5.722;2022-07-22T15:59:26;2.30;;;2.20;;
34196;SDS011;36594;45.192;5.722;2022-07-22T16:02:20;2.40;;;2.20;;
34196;SDS011;36594;45.192;5.722;2022-07-22T16:05:08;2.03;;;1.93;;
34196;SDS011;36594;45.192;5.722;2022-07-22T16:07:57;2.20;;;2.10;;
34196;SDS011;36594;45.192;5.722;2022-07-22T16:10:45;2.10;;;2.00;;
34196;SDS011;36594;45.192;5.722;2022-07-22T16:13:33;2.22;;;2.12;;
34196;SDS011;36594;45.192;5.722;2022-07-22T16:16:22;2.35;;;2.15;;
34196;SDS011;36594;45.192;5.722;2022-07-22T16:19:10;2.22;;;2.12;;
34196;SDS011;36594;45.192;5.722;2022-07-22T16:21:59;2.17;;;2.00;;
34196;SDS011;36594;45.192;5.722;2022-07-22T16:24:49;2.27;;;1.98;;
34196;SDS011;36594;45.192;5.722;2022-07-22T16:27:38;2.10;;;1.90;;
34196;SDS011;36594;45.192;5.722;2022-07-22T16:30:27;2.10;;;2.00;;
34196;SDS011;36594;45.192;5.722;2022-07-22T16:33:15;2.12;;;2.00;;
34196;SDS011;36594;45.192;5.722;2022-07-22T16:36:04;2.08;;;1.92;;
34196;SDS011;36594;45.192;5.722;2022-07-22T16:38:53;2.40;;;2.00;;
34196;SDS011;36594;45.192;5.722;2022-07-22T16:41:41;2.37;;;2.10;;
34196;SDS011;36594;45.192;5.722;2022-07-22T16:44:30;2.40;;;2.00;;
34196;SDS011;36594;45.192;5.722;2022-07-22T16:47:18;1.90;;;1.80;;
34196;SDS011;36594;45.192;5.722;2022-07-22T16:50:09;3.77;;;2.08;;
34196;SDS011;36594;45.192;5.722;2022-07-22T16:52:57;2.12;;;1.92;;
34196;SDS011;36594;45.192;5.722;2022-07-22T16:55:46;2.17;;;1.98;;
34196;SDS011;36594;45.192;5.722;2022-07-22T16:58:34;2.35;;;2.17;;
34196;SDS011;36594;45.192;5.722;2022-07-22T17:01:22;4.50;;;2.10;;
34196;SDS011;36594;45.192;5.722;2022-07-22T17:04:11;3.08;;;2.10;;
34196;SDS011;36594;45.192;5.722;2022-07-22T17:06:59;2.22;;;2.12;;
34196;SDS011;36594;45.192;5.722;2022-07-22T17:09:48;2.25;;;2.00;;
34196;SDS011;36594;45.192;5.722;2022-07-22T17:12:36;2.52;;;2.10;;
34196;SDS011;36594;45.192;5.722;2022-07-22T17:15:25;2.40;;;2.22;;
34196;SDS011;36594;45.192;5.722;2022-07-22T17:18:13;3.02;;;2.20;;
34196;SDS011;36594;45.192;5.722;2022-07-22T17:21:03;2.45;;;2.20;;
34196;SDS011;36594;45.192;5.722;2022-07-22T17:23:52;2.33;;;2.20;;